Orbital elements of FENGYUN 1C DEB
| Launched | 9 May 1999 |
| Flight ended | – |
| Launch site | Taiyuan Space Center, PRC |
| Owner | People's Republic of China |
| NORAD ID | 31056 |
| Date fetched |
Epoch osculation |
Inc. [°] |
Ecc. | RA asc node [hr] |
Arg Peri. [°] |
Mean anom [°] |
Mean motion [rev/day] |
Abs. mag |
| Date fetched |
Epoch osculation |
Inc. [°] |
Ecc. | RA asc node [hr] |
Arg Peri. [°] |
Mean anom [°] |
Mean motion [rev/day] |
Abs. mag |
| 2026 May 05 17:57 | 2026 May 05 10:47:12 | 98.6848 | 0.00244 | 7.2615 | 291.4686 | 223.7497 | 14.14518 | – |
| 2026 May 04 17:57 | 2026 Apr 30 10:15:24 | 98.6844 | 0.00246 | 6.9358 | 306.4788 | 223.7497 | 14.14518 | – |
| 2026 May 03 17:57 | 2026 Apr 30 10:15:24 | 98.6844 | 0.00246 | 6.9358 | 306.4788 | 223.7497 | 14.14518 | – |
| 2026 May 02 17:57 | 2026 Apr 30 10:15:24 | 98.6844 | 0.00246 | 6.9358 | 306.4788 | 223.7497 | 14.14518 | – |
| 2026 May 01 17:56 | 2026 Apr 30 10:15:24 | 98.6844 | 0.00246 | 6.9358 | 306.4788 | 223.7497 | 14.14518 | – |
| 2026 Apr 30 17:56 | 2026 Apr 30 10:15:24 | 98.6844 | 0.00246 | 6.9358 | 306.4788 | 223.7497 | 14.14518 | – |
| 2026 Apr 29 17:57 | 2026 Apr 24 09:57:05 | 98.6841 | 0.00250 | 6.5459 | 324.1946 | 223.7497 | 14.14518 | – |
| 2026 Apr 28 17:56 | 2026 Apr 24 09:57:05 | 98.6841 | 0.00250 | 6.5459 | 324.1946 | 223.7497 | 14.14518 | – |
| 2026 Apr 27 17:58 | 2026 Apr 24 09:57:05 | 98.6841 | 0.00250 | 6.5459 | 324.1946 | 223.7497 | 14.14518 | – |
| 2026 Apr 26 17:58 | 2026 Apr 24 09:57:05 | 98.6841 | 0.00250 | 6.5459 | 324.1946 | 223.7497 | 14.14518 | – |
| 2026 Apr 25 17:58 | 2026 Apr 24 09:57:05 | 98.6841 | 0.00250 | 6.5459 | 324.1946 | 223.7497 | 14.14518 | – |
| 2026 Apr 24 17:59 | 2026 Apr 24 09:57:05 | 98.6841 | 0.00250 | 6.5459 | 324.1946 | 223.7497 | 14.14518 | – |
| 2026 Apr 23 17:57 | 2026 Apr 17 16:46:57 | 98.6839 | 0.00254 | 6.1105 | 343.7051 | 223.7497 | 14.14518 | – |
| 2026 Apr 22 17:57 | 2026 Apr 17 16:46:57 | 98.6839 | 0.00254 | 6.1105 | 343.7051 | 223.7497 | 14.14518 | – |
| 2026 Apr 21 17:57 | 2026 Apr 17 16:46:57 | 98.6839 | 0.00254 | 6.1105 | 343.7051 | 223.7497 | 14.14518 | – |
| 2026 Apr 20 17:57 | 2026 Apr 17 16:46:57 | 98.6839 | 0.00254 | 6.1105 | 343.7051 | 223.7497 | 14.14518 | – |
| 2026 Apr 19 17:58 | 2026 Apr 17 16:46:57 | 98.6839 | 0.00254 | 6.1105 | 343.7051 | 223.7497 | 14.14518 | – |
| 2026 Apr 18 17:56 | 2026 Apr 13 05:04:46 | 98.6835 | 0.00257 | 5.8195 | 356.4550 | 223.7497 | 14.14518 | – |
| 2026 Apr 16 17:57 | 2026 Apr 13 05:04:46 | 98.6835 | 0.00257 | 5.8195 | 356.4550 | 223.7497 | 14.14518 | – |
| 2026 Apr 14 17:57 | 2026 Apr 13 05:04:46 | 98.6835 | 0.00257 | 5.8195 | 356.4550 | 223.7497 | 14.14518 | – |
| 2026 Apr 13 17:57 | 2026 Apr 13 05:04:46 | 98.6835 | 0.00257 | 5.8195 | 356.4550 | 223.7497 | 14.14518 | – |
| 2026 Apr 12 17:57 | 2026 Apr 08 10:16:03 | 98.6831 | 0.00260 | 5.5093 | 9.9583 | 223.7497 | 14.14518 | – |
| 2026 Apr 11 17:57 | 2026 Apr 08 10:16:03 | 98.6831 | 0.00260 | 5.5093 | 9.9583 | 223.7497 | 14.14518 | – |
| 2026 Apr 10 17:58 | 2026 Apr 08 10:16:03 | 98.6831 | 0.00260 | 5.5093 | 9.9583 | 223.7497 | 14.14518 | – |
| 2026 Apr 09 18:01 | 2026 Apr 08 10:16:03 | 98.6831 | 0.00260 | 5.5093 | 9.9583 | 223.7497 | 14.14518 | – |
| 2026 Apr 08 17:57 | 2026 Apr 08 10:16:03 | 98.6831 | 0.00260 | 5.5093 | 9.9583 | 223.7497 | 14.14518 | – |